To NAV CANADA Home Page Login to a new session Search on AWWS site Disclaimer Vers la page française équivalente Tips FAQ What's new on the site To the Forecasts and Observations / NOTAM section To "File a Flight Plan" website Publications and other links Update of the User's profile FIC Telephone Numbers My Weather Data Folder Route Weather Data Regional Weather Data Local Weather Data To the Forecasts and Observations / NOTAM section
Request Generated 08/19/2022 at 10:10:08 UTC . Weather information available at that time is displayed.

METAR/TAF

If you find any discrepancies between the coded METAR/TAF and the plain language METAR/TAF please use the coded METAR/TAF. LWIS bulletins are not decoded in plain language.

CALGARY/SPRINGBANK/AB    (show WxCam)

METAR CYBW 191000Z AUTO 19002KT 9SM CLR 12/09 A3011 RMK SLP181 DENSITY ALT 4300 =
METAR
LOCATION
CYBW - CALGARY/SPRINGBANK/AB
DATE - TIME
19 AUGUST 2022 - 1000 UTC
WIND
190 TRUE @ 2  KNOTS
VISIBILITY
9 STAT.  MILES
RUNWAY VISUAL RANGE
WEATHER
CLOUDINESS
CLEAR SKY
TEMP / DEWPOINT
12 C / 9 C
ALTIMETER
30.11 IN HG
RECENT WEATHER
WIND SHEAR

METAR CYBW 190900Z AUTO 19002KT 9SM CLR 14/10 A3012 RMK SLP182 DENSITY ALT 4600 =
METAR
LOCATION
CYBW - CALGARY/SPRINGBANK/AB
DATE - TIME
19 AUGUST 2022 - 0900 UTC
WIND
190 TRUE @ 2  KNOTS
VISIBILITY
9 STAT.  MILES
RUNWAY VISUAL RANGE
WEATHER
CLOUDINESS
CLEAR SKY
TEMP / DEWPOINT
14 C / 10 C
ALTIMETER
30.12 IN HG
RECENT WEATHER
WIND SHEAR

METAR CYBW 190800Z AUTO 14005KT 9SM CLR 14/09 A3012 RMK SLP185 DENSITY ALT 4600 =
METAR
LOCATION
CYBW - CALGARY/SPRINGBANK/AB
DATE - TIME
19 AUGUST 2022 - 0800 UTC
WIND
140 TRUE @ 5  KNOTS
VISIBILITY
9 STAT.  MILES
RUNWAY VISUAL RANGE
WEATHER
CLOUDINESS
CLEAR SKY
TEMP / DEWPOINT
14 C / 9 C
ALTIMETER
30.12 IN HG
RECENT WEATHER
WIND SHEAR

*** REMARK        : Forecast period has ended; this was the last TAF issued
Your time UTC time
Weather data provided by Environment Canada and NAV CANADA